Terminal Aerodrome Forecast
Issued by NWS Twin Cities, MN

Home | Current Version | Previous Version | Text Only | Print | Product List | Glossary On
Versions: 1 2 3 4 5 6 7 8 9 10 11 12 13 14 15 16 17
000
FTUS43 KMPX 280535
TAFSTC
TAF
KSTC 280535Z 2806/2906 00000KT P6SM SCT250
     FM281000 15004KT P6SM BKN250
     FM281400 17013G20KT P6SM SCT150 BKN250
     FM281700 18016G28KT P6SM FEW050 BKN150
     FM290100 18009KT P6SM SCT050 BKN090=

USA.gov is the U.S. government's official web portal to all federal, state and local government web resources and services.